Wednesday, August 15, 2018, 3:43 AM CDT
Back to Local

KOMA, Omaha Eppley Airfield

Location: Omaha, NE, United States Lat: 41.3
Local Time: 3:43 AM CDT ( 8:43 GMT) Lon: -95.9
Time Zone: US/Central Elev: 984 ft

Show me the last for .
Show Decoded

2018-08-15 03:05 METAR KOMA 150805Z 36006KT 3SM -RA BR BKN009 OVC024 21/19 A2989 RMK AO2
                 T02110194 PNO $ =
2018-08-15 02:58 METAR KOMA 150758Z 02007KT 3SM RA BR SCT009 BKN024 OVC034 21/19 A2989 RMK AO2
                 P0000 T02110194 =
2018-08-15 02:52 METAR KOMA 150752Z 03008KT 4SM RA BR SCT010 BKN024 OVC034 21/19 A2989 RMK AO2
                 RAB02 SLP112 P0003 T02110194 =
2018-08-15 01:52 METAR KOMA 150652Z 05011KT 10SM BKN018 BKN023 OVC050 21/19 A2988 RMK AO2 RAE19
                 SLP111 P0000 T02110189 =
2018-08-15 01:38 METAR KOMA 150638Z 06011KT 10SM SCT010 OVC018 21/19 A2988 RMK AO2 RAE19 P0000
                 T02110189 =
2018-08-15 00:52 METAR KOMA 150552Z 03012G21KT 3SM -RA BR OVC010 21/19 A2987 RMK AO2 DZE34RAB34
                 SLP109 P0001 60001 T02110194 10244 20206 402560206 55013 =
2018-08-15 00:04 METAR KOMA 150504Z 02010KT 6SM -DZ BR BKN011 OVC017 21/18 A2987 RMK AO2 P0000
                 T02060183 =
2018-08-14 23:52 METAR KOMA 150452Z 02011KT 7SM -DZ SCT018 BKN025 OVC060 21/18 A2987 RMK AO2
                 DZB40 SLP108 P0000 T02060178 =
2018-08-14 23:41 METAR KOMA 150441Z 01011KT 7SM -DZ SCT018 BKN025 OVC060 21/17 A2987 RMK AO2
                 DZB40 P0000 T02110172 =
2018-08-14 22:52 METAR KOMA 150352Z 05009KT 10SM FEW040 BKN060 BKN110 22/17 A2989 RMK AO2 SLP113
                 T02170167 =
2018-08-14 21:52 METAR KOMA 150252Z 05009KT 10SM FEW020 BKN060 BKN110 22/18 A2991 RMK AO2 SLP121
                 T02220178 51008 =
2018-08-14 20:52 METAR KOMA 150152Z 04004KT 10SM SCT020 SCT080 BKN110 OVC250 23/19 A2991 RMK AO2
                 SLP121 T02280189 =
2018-08-14 19:52 METAR KOMA 150052Z 08010KT 10SM FEW020 SCT080 BKN110 OVC250 24/19 A2990 RMK AO2
                 SLP116 T02390189 =
2018-08-14 18:52 METAR KOMA 142352Z 10009KT 10SM FEW020 BKN080 BKN110 OVC200 24/19 A2989 RMK AO2
                 SLP113 60012 T02440189 10250 20228 58005 =
2018-08-14 17:52 METAR KOMA 142252Z 09009KT 10SM FEW020 BKN080 BKN110 OVC200 25/19 A2990 RMK AO2
                 SLP116 T02500189 =
2018-08-14 16:52 METAR KOMA 142152Z 10009KT 10SM FEW018 SCT050 BKN110 OVC200 24/20 A2990 RMK AO2
                 RAE18 SLP117 P0000 T02440200 =
2018-08-14 15:52 METAR KOMA 142052Z 11010KT 10SM -RA SCT040 BKN090 OVC120 24/19 A2990 RMK AO2
                 SLP118 P0001 60012 T02390194 57014 =
2018-08-14 14:52 METAR KOMA 141952Z 12010KT 9SM -RA SCT040 BKN060 OVC100 24/19 A2992 RMK AO2
                 SLP123 P0004 T02390194 =
2018-08-14 13:52 METAR KOMA 141852Z 14006KT 9SM -RA BKN080 OVC100 23/21 A2993 RMK AO2 SLP127
                 P0007 T02330206 =
2018-08-14 12:52 METAR KOMA 141752Z 14006KT 9SM -RA SCT080 OVC100 23/20 A2994 RMK AO2 SLP132
                 P0002 60002 T02330200 10256 20217 51004 =
2018-08-14 11:52 METAR KOMA 141652Z 15010KT 10SM -RA FEW070 SCT100 OVC120 24/20 A2994 RMK AO2
                 SLP131 DZB02E10RAB28 P0000 T02390200 =
2018-08-14 10:52 METAR KOMA 141552Z 14006KT 10SM -RA SCT045 BKN070 OVC090 25/21 A2994 RMK AO2
                 DZE10RAB23 SLP127 P0000 T02500206 =
2018-08-14 09:52 METAR KOMA 141452Z 13004KT 10SM -DZ FEW049 SCT075 SCT095 OVC200 24/21 A2993 RMK
                 AO2 DZB48 SLP126 P0000 60000 T02440211 53004 =
2018-08-14 08:52 METAR KOMA 141352Z 35004KT 10SM FEW080 BKN110 OVC200 24/21 A2993 RMK AO2
                 RAE1253B12E23 SLP124 P0000 T02390206 =
2018-08-14 07:52 METAR KOMA 141252Z 00000KT 10SM -RA FEW045 BKN120 OVC200 23/21 A2993 RMK AO2
                 RAB43 SLP124 P0000 T02280206 =
2018-08-14 06:52 METAR KOMA 141152Z 32004KT 9SM BKN200 OVC250 22/20 A2992 RMK AO2 SLP122
                 T02170200 10244 20217 55004 =
2018-08-14 05:52 METAR KOMA 141052Z 01005KT 10SM OVC200 22/20 A2991 RMK AO2 SLP119 T02220200 =
2018-08-14 04:52 METAR KOMA 140952Z 10003KT 10SM FEW060 OVC250 23/21 A2992 RMK AO2 SLP121
                 T02330206 =
2018-08-14 03:52 METAR KOMA 140852Z 13004KT 10SM OVC250 24/21 A2993 RMK AO2 SLP125 T02390211
                 58007 =

Support USWX by starting your Amazon purchase here.